createdAt,value
2023-05-10T00:01:48.475Z,14.84
2023-05-10T00:04:15.178Z,14.72
2023-05-10T00:06:42.199Z,14.60
2023-05-10T00:09:08.939Z,14.56
2023-05-10T00:11:35.814Z,14.52
2023-05-10T00:14:02.724Z,14.42
2023-05-10T00:16:44.398Z,14.36
2023-05-10T00:19:11.208Z,14.31
2023-05-10T00:21:38.210Z,14.26
2023-05-10T00:24:05.644Z,14.20
2023-05-10T00:26:36.362Z,14.12
2023-05-10T00:29:06.260Z,14.09
2023-05-10T00:31:33.166Z,14.15
2023-05-10T00:34:00.895Z,14.08
2023-05-10T00:36:28.787Z,14.14
2023-05-10T00:38:55.495Z,14.05
2023-05-10T00:41:23.463Z,14.12
2023-05-10T00:43:51.991Z,14.13
2023-05-10T00:46:22.558Z,14.05
2023-05-10T00:48:53.555Z,13.95
2023-05-10T00:51:20.773Z,13.89
2023-05-10T00:53:50.428Z,13.85
2023-05-10T00:56:24.756Z,13.82
2023-05-10T00:58:53.189Z,13.78
2023-05-10T01:01:20.660Z,13.82
2023-05-10T01:03:50.230Z,13.80
2023-05-10T01:06:17.262Z,13.81
2023-05-10T01:08:44.452Z,13.74
2023-05-10T01:11:11.280Z,13.77
2023-05-10T01:13:42.204Z,13.72
2023-05-10T01:16:13.569Z,13.73
2023-05-10T01:18:41.803Z,13.66
2023-05-10T01:21:37.342Z,13.68
2023-05-10T01:24:35.327Z,13.70
2023-05-10T01:27:04.840Z,13.63
2023-05-10T01:30:15.573Z,13.59
2023-05-10T01:33:05.271Z,13.58
2023-05-10T01:35:41.410Z,13.58
2023-05-10T01:38:19.862Z,13.55
2023-05-10T01:40:53.656Z,13.53
2023-05-10T01:43:24.462Z,13.53
2023-05-10T01:46:12.012Z,13.56
2023-05-10T01:48:48.012Z,13.58
2023-05-10T01:51:18.530Z,13.48
2023-05-10T01:53:49.253Z,13.50
2023-05-10T01:56:17.128Z,13.46
2023-05-10T01:58:49.604Z,13.48
2023-05-10T02:01:20.020Z,13.56
2023-05-10T02:03:48.223Z,13.50
2023-05-10T02:06:20.730Z,13.51
2023-05-10T02:08:48.894Z,13.54
2023-05-10T02:11:15.839Z,13.46
2023-05-10T02:13:44.512Z,13.51
2023-05-10T02:16:13.681Z,13.46
2023-05-10T02:18:41.778Z,13.47
2023-05-10T02:21:09.859Z,13.43
2023-05-10T02:23:38.328Z,13.48
2023-05-10T02:26:06.891Z,13.54
2023-05-10T02:28:34.892Z,13.55
2023-05-10T02:31:02.276Z,13.57
2023-05-10T02:33:32.025Z,13.55
2023-05-10T02:35:59.275Z,13.56
2023-05-10T02:38:27.946Z,13.60
2023-05-10T02:40:55.692Z,13.64
2023-05-10T02:43:24.300Z,13.70
2023-05-10T02:45:51.182Z,13.70
2023-05-10T02:48:17.966Z,13.69
2023-05-10T02:50:47.353Z,13.71
2023-05-10T02:53:23.379Z,13.71
2023-05-10T02:55:53.293Z,13.72
2023-05-10T02:58:22.823Z,13.68
2023-05-10T03:00:49.341Z,13.70
2023-05-10T03:03:16.078Z,13.69
2023-05-10T03:05:42.651Z,13.71
2023-05-10T03:08:10.106Z,13.73
2023-05-10T03:10:46.249Z,13.77
2023-05-10T03:14:04.890Z,13.72
2023-05-10T03:16:44.176Z,13.74
2023-05-10T03:19:23.598Z,13.68
2023-05-10T03:21:52.579Z,13.70
2023-05-10T03:24:22.758Z,13.68
2023-05-10T03:26:51.144Z,13.71
2023-05-10T03:29:18.532Z,13.69
2023-05-10T03:31:45.378Z,13.71
2023-05-10T03:34:12.265Z,13.67
2023-05-10T03:36:38.833Z,13.66
2023-05-10T03:39:05.445Z,13.66
2023-05-10T03:41:31.974Z,13.67
2023-05-10T03:43:58.986Z,13.71
2023-05-10T03:46:26.340Z,13.73
2023-05-10T03:48:52.945Z,13.71
2023-05-10T03:51:19.494Z,13.74
2023-05-10T03:53:46.186Z,13.74
2023-05-10T03:56:12.988Z,13.76
2023-05-10T03:58:39.665Z,13.76
2023-05-10T04:01:07.130Z,13.76
2023-05-10T04:03:33.729Z,13.77
2023-05-10T04:06:02.439Z,13.78
2023-05-10T04:08:30.008Z,13.81
2023-05-10T04:11:06.628Z,13.82
2023-05-10T04:13:33.330Z,13.86
2023-05-10T04:15:59.948Z,13.82
2023-05-10T04:18:27.062Z,13.83
2023-05-10T04:20:53.521Z,13.81
2023-05-10T04:23:20.220Z,13.83
2023-05-10T04:25:47.131Z,13.86
2023-05-10T04:28:14.321Z,13.76
2023-05-10T04:30:41.541Z,13.84
2023-05-10T04:33:08.355Z,13.87
2023-05-10T04:35:36.039Z,13.80
2023-05-10T04:38:03.715Z,13.80
2023-05-10T04:40:30.223Z,13.81
2023-05-10T04:42:56.876Z,13.81
2023-05-10T04:45:23.444Z,13.81
2023-05-10T04:47:50.086Z,13.85
2023-05-10T04:50:16.993Z,13.88
2023-05-10T04:52:43.746Z,13.88
2023-05-10T04:55:13.894Z,13.86
2023-05-10T04:57:40.748Z,13.82
2023-05-10T05:00:07.979Z,13.82
2023-05-10T05:02:34.644Z,13.83
2023-05-10T05:05:01.301Z,13.85
2023-05-10T05:07:27.930Z,13.85
2023-05-10T05:09:54.425Z,13.90
2023-05-10T05:12:21.025Z,13.94
2023-05-10T05:14:47.562Z,14.02
2023-05-10T05:17:14.131Z,14.11
2023-05-10T05:19:40.658Z,14.18
2023-05-10T05:22:09.107Z,14.19
2023-05-10T05:24:39.113Z,14.25
2023-05-10T05:27:05.893Z,14.22
2023-05-10T05:29:32.612Z,14.26
2023-05-10T05:31:59.286Z,14.32
2023-05-10T05:34:26.181Z,14.30
2023-05-10T05:36:52.787Z,14.28
2023-05-10T05:39:19.294Z,14.28
2023-05-10T05:41:46.106Z,14.30
2023-05-10T05:44:12.571Z,14.37
2023-05-10T05:46:39.129Z,14.40
2023-05-10T05:49:05.704Z,14.45
2023-05-10T05:51:32.187Z,14.53
2023-05-10T05:53:58.923Z,14.53
2023-05-10T05:56:25.662Z,14.57
2023-05-10T05:58:52.421Z,14.54
2023-05-10T06:01:19.116Z,14.59
2023-05-10T06:03:46.845Z,14.56
2023-05-10T06:06:16.716Z,14.58
2023-05-10T06:08:43.388Z,14.66
2023-05-10T06:11:09.878Z,14.67
2023-05-10T06:13:36.487Z,14.70
2023-05-10T06:16:03.792Z,14.68
2023-05-10T06:18:33.346Z,14.69
2023-05-10T06:21:00.006Z,14.78
2023-05-10T06:23:26.503Z,14.76
2023-05-10T06:25:53.468Z,14.76
2023-05-10T06:28:19.933Z,14.77
2023-05-10T06:30:46.487Z,14.78
2023-05-10T06:33:13.095Z,14.81
2023-05-10T06:35:39.920Z,14.84
2023-05-10T06:38:06.976Z,14.81
2023-05-10T06:40:33.895Z,14.79
2023-05-10T06:43:00.572Z,14.80
2023-05-10T06:45:27.183Z,14.78
2023-05-10T06:47:53.976Z,14.75
2023-05-10T06:50:20.691Z,14.84
2023-05-10T06:52:47.302Z,14.84
2023-05-10T06:55:13.903Z,14.91
2023-05-10T06:57:40.582Z,15.00
2023-05-10T07:00:08.079Z,15.08
2023-05-10T07:02:34.852Z,15.13
2023-05-10T07:05:03.136Z,15.15
2023-05-10T07:07:30.205Z,15.21
2023-05-10T07:09:58.536Z,15.17
2023-05-10T07:12:26.114Z,15.13
2023-05-10T07:14:53.186Z,15.13
2023-05-10T07:17:19.856Z,15.12
2023-05-10T07:19:46.414Z,15.20
2023-05-10T07:22:16.332Z,15.30
2023-05-10T07:24:42.911Z,15.38
2023-05-10T07:27:11.308Z,15.50
2023-05-10T07:29:38.490Z,15.56
2023-05-10T07:32:05.556Z,15.63
2023-05-10T07:34:32.974Z,15.70
2023-05-10T07:37:00.089Z,15.75
2023-05-10T07:39:28.381Z,15.75
2023-05-10T07:41:56.224Z,15.72
2023-05-10T07:44:26.765Z,15.67
2023-05-10T07:46:53.509Z,15.70
2023-05-10T07:49:20.240Z,15.73
2023-05-10T07:51:49.738Z,15.79
2023-05-10T07:54:18.379Z,15.81
2023-05-10T07:56:48.082Z,15.82
2023-05-10T07:59:16.829Z,15.77
2023-05-10T08:01:44.179Z,15.72
2023-05-10T08:04:11.093Z,15.72
2023-05-10T08:06:37.848Z,15.73
2023-05-10T08:09:04.426Z,15.71
2023-05-10T08:11:31.276Z,15.60
2023-05-10T08:13:58.446Z,15.53
2023-05-10T08:16:25.352Z,15.45
2023-05-10T08:18:52.492Z,15.46
2023-05-10T08:21:19.504Z,15.46
2023-05-10T08:23:46.385Z,15.55
2023-05-10T08:26:13.129Z,15.57
2023-05-10T08:28:40.880Z,15.49
2023-05-10T08:31:07.543Z,15.53
2023-05-10T08:33:35.270Z,15.53
2023-05-10T08:36:06.236Z,15.59
2023-05-10T08:38:36.006Z,15.68
2023-05-10T08:41:03.679Z,15.85
2023-05-10T08:43:32.355Z,15.92
2023-05-10T08:46:03.803Z,15.91
2023-05-10T08:48:31.977Z,15.83
2023-05-10T08:51:01.110Z,15.75
2023-05-10T08:53:29.761Z,15.76
2023-05-10T08:55:56.647Z,15.79
2023-05-10T08:58:23.392Z,15.83
2023-05-10T09:00:53.954Z,15.92
2023-05-10T09:03:20.651Z,15.98
2023-05-10T09:05:47.774Z,16.13
2023-05-10T09:08:16.749Z,16.26
2023-05-10T09:10:44.751Z,16.24
2023-05-10T09:13:12.806Z,16.32
2023-05-10T09:15:40.022Z,16.39
2023-05-10T09:18:06.681Z,16.48
2023-05-10T09:20:33.482Z,16.61
2023-05-10T09:23:03.212Z,16.66
2023-05-10T09:25:32.366Z,16.59
2023-05-10T09:27:58.896Z,16.57
2023-05-10T09:30:33.111Z,16.56
2023-05-10T09:33:01.315Z,16.62
2023-05-10T09:35:30.641Z,16.54
2023-05-10T09:38:01.693Z,16.59
2023-05-10T09:40:30.121Z,16.62
2023-05-10T09:43:01.002Z,16.54
2023-05-10T09:45:36.207Z,16.65
2023-05-10T09:48:07.253Z,16.73
2023-05-10T09:50:37.736Z,16.79
2023-05-10T09:53:05.101Z,16.83
2023-05-10T09:55:42.371Z,16.83
2023-05-10T09:58:11.921Z,16.79
2023-05-10T10:00:41.286Z,16.68
2023-05-10T10:03:16.186Z,16.70
2023-05-10T10:05:44.637Z,16.61
2023-05-10T10:08:14.117Z,16.44
2023-05-10T10:10:41.872Z,16.31
2023-05-10T10:13:09.429Z,16.23
2023-05-10T10:15:37.049Z,16.25
2023-05-10T10:18:05.246Z,16.27
2023-05-10T10:20:32.422Z,16.31
2023-05-10T10:22:59.053Z,16.39
2023-05-10T10:25:26.578Z,16.55
2023-05-10T10:27:53.351Z,16.76
2023-05-10T10:30:38.191Z,16.78
2023-05-10T10:33:32.160Z,16.57
2023-05-10T10:36:03.663Z,16.48
2023-05-10T10:38:48.511Z,16.37
2023-05-10T10:41:32.350Z,16.34
2023-05-10T10:44:27.188Z,16.46
2023-05-10T10:47:14.268Z,16.48
2023-05-10T10:49:40.787Z,16.56
2023-05-10T10:52:23.614Z,16.61
2023-05-10T10:55:06.306Z,16.63
2023-05-10T10:57:35.309Z,16.79
2023-05-10T11:00:23.958Z,16.97
2023-05-10T11:02:59.067Z,17.09
2023-05-10T11:05:29.788Z,17.30
2023-05-10T11:07:58.462Z,17.53
2023-05-10T11:10:26.562Z,17.46
2023-05-10T11:12:53.190Z,17.33
2023-05-10T11:15:24.590Z,17.20
2023-05-10T11:17:53.109Z,16.97
2023-05-10T11:20:24.066Z,16.83
2023-05-10T11:22:54.129Z,16.71
2023-05-10T11:25:21.623Z,16.67
2023-05-10T11:27:49.210Z,16.65
2023-05-10T11:30:16.661Z,16.71
2023-05-10T11:32:43.817Z,16.76
2023-05-10T11:35:12.521Z,16.89
2023-05-10T11:37:42.431Z,16.87
2023-05-10T11:40:10.777Z,16.91
2023-05-10T11:42:38.626Z,16.90
2023-05-10T11:45:06.303Z,16.79
2023-05-10T11:47:33.481Z,16.71
2023-05-10T11:50:04.174Z,16.66
2023-05-10T11:52:36.351Z,16.74
2023-05-10T11:55:03.746Z,16.74
2023-05-10T11:57:31.349Z,16.75
2023-05-10T11:59:58.810Z,16.80
2023-05-10T12:02:25.797Z,16.83
2023-05-10T12:07:21.476Z,16.89
2023-05-10T12:10:08.858Z,16.96
2023-05-10T12:12:46.532Z,16.81
2023-05-10T12:15:19.621Z,16.66
2023-05-10T12:17:47.171Z,16.51
2023-05-10T12:20:17.119Z,16.34
2023-05-10T12:22:55.636Z,16.25
2023-05-10T12:25:24.278Z,16.23
2023-05-10T12:27:56.263Z,16.24
2023-05-10T12:30:26.338Z,16.18
2023-05-10T12:32:53.861Z,16.17
2023-05-10T12:35:22.929Z,16.23
2023-05-10T12:37:49.303Z,16.34
2023-05-10T12:40:15.994Z,16.49
2023-05-10T12:42:42.601Z,16.52
2023-05-10T12:45:09.865Z,16.47
2023-05-10T12:47:37.222Z,16.62
2023-05-10T12:50:06.257Z,16.75
2023-05-10T12:52:33.422Z,16.74
2023-05-10T12:55:01.176Z,16.73
2023-05-10T12:57:28.428Z,16.67
2023-05-10T12:59:55.456Z,16.71
2023-05-10T13:02:23.880Z,16.70
2023-05-10T13:07:17.732Z,16.61
2023-05-10T13:09:44.389Z,16.49
2023-05-10T13:12:10.891Z,16.41
2023-05-10T13:14:37.389Z,16.38
2023-05-10T13:17:03.987Z,16.39
2023-05-10T13:19:31.888Z,16.48
2023-05-10T13:21:58.982Z,16.48
2023-05-10T13:24:25.576Z,16.46
2023-05-10T13:26:52.294Z,16.44
2023-05-10T13:29:19.203Z,16.48
2023-05-10T13:31:45.992Z,16.48
2023-05-10T13:34:12.466Z,16.43
2023-05-10T13:36:39.122Z,16.36
2023-05-10T13:39:06.226Z,16.34
2023-05-10T13:41:32.777Z,16.35
2023-05-10T13:43:59.790Z,16.31
2023-05-10T13:46:26.517Z,16.32
2023-05-10T13:48:52.919Z,16.36
2023-05-10T13:51:19.403Z,16.50
2023-05-10T13:53:46.129Z,16.71
2023-05-10T13:56:12.960Z,16.83
2023-05-10T13:58:39.395Z,16.92
2023-05-10T14:01:05.944Z,16.89
2023-05-10T14:03:33.474Z,16.84
2023-05-10T14:06:00.211Z,16.79
2023-05-10T14:08:27.992Z,16.71
2023-05-10T14:10:54.443Z,16.67
2023-05-10T14:13:20.873Z,16.60
2023-05-10T14:15:49.199Z,16.49
2023-05-10T14:18:15.912Z,16.40
2023-05-10T14:20:42.415Z,16.42
2023-05-10T14:23:10.471Z,16.45
2023-05-10T14:25:39.050Z,16.52
2023-05-10T14:28:05.716Z,16.58
2023-05-10T14:30:33.648Z,16.62
2023-05-10T14:33:02.045Z,16.70
2023-05-10T14:35:29.353Z,16.80
2023-05-10T14:37:56.019Z,16.93
2023-05-10T14:40:22.489Z,16.96
2023-05-10T14:42:49.345Z,17.06
2023-05-10T14:45:16.071Z,17.10
2023-05-10T14:47:42.696Z,17.10
2023-05-10T14:50:09.271Z,17.05
2023-05-10T14:52:37.201Z,17.05
2023-05-10T14:55:04.030Z,17.08
2023-05-10T14:57:30.666Z,17.06
2023-05-10T14:59:57.961Z,17.03
2023-05-10T15:02:24.911Z,17.03
2023-05-10T15:04:51.964Z,17.02
2023-05-10T15:07:19.301Z,17.06
2023-05-10T15:09:46.178Z,17.05
2023-05-10T15:12:12.711Z,17.00
2023-05-10T15:14:39.134Z,16.98
2023-05-10T15:17:07.566Z,16.99
2023-05-10T15:19:34.264Z,16.99
2023-05-10T15:22:00.831Z,16.98
2023-05-10T15:24:29.237Z,17.00
2023-05-10T15:26:56.217Z,17.01
2023-05-10T15:29:22.682Z,17.03
2023-05-10T15:31:50.251Z,16.94
2023-05-10T15:34:17.164Z,16.83
2023-05-10T15:36:43.658Z,16.78
2023-05-10T15:39:10.208Z,16.79
2023-05-10T15:41:36.843Z,16.82
2023-05-10T15:44:03.375Z,16.81
2023-05-10T15:46:30.328Z,16.81
2023-05-10T15:48:58.235Z,16.85
2023-05-10T15:51:24.655Z,16.90
2023-05-10T15:54:05.905Z,16.92
2023-05-10T15:56:34.894Z,16.97
2023-05-10T15:59:01.353Z,16.94
2023-05-10T16:01:28.538Z,16.84
2023-05-10T16:03:55.039Z,16.78
2023-05-10T16:06:21.426Z,16.76
2023-05-10T16:08:49.225Z,16.72
2023-05-10T16:11:15.685Z,16.71
2023-05-10T16:13:42.137Z,16.63
2023-05-10T16:16:08.953Z,16.61
2023-05-10T16:18:35.911Z,16.55
2023-05-10T16:21:02.725Z,16.53
2023-05-10T16:23:29.503Z,16.52
2023-05-10T16:25:57.223Z,16.43
2023-05-10T16:28:23.675Z,16.37
2023-05-10T16:30:50.117Z,16.33
2023-05-10T16:33:16.783Z,16.34
2023-05-10T16:35:43.901Z,16.39
2023-05-10T16:38:11.137Z,16.44
2023-05-10T16:40:37.561Z,16.47
2023-05-10T16:43:03.919Z,16.50
2023-05-10T16:45:33.207Z,16.46
2023-05-10T16:47:59.778Z,16.46
2023-05-10T16:50:26.291Z,16.45
2023-05-10T16:52:52.771Z,16.44
2023-05-10T16:55:19.453Z,16.39
2023-05-10T16:57:46.144Z,16.34
2023-05-10T17:00:13.014Z,16.29
2023-05-10T17:02:39.607Z,16.24
2023-05-10T17:05:06.526Z,16.17
2023-05-10T17:07:32.989Z,16.16
2023-05-10T17:09:59.414Z,16.11
2023-05-10T17:12:26.120Z,16.08
2023-05-10T17:14:52.750Z,16.04
2023-05-10T17:17:19.285Z,16.00
2023-05-10T17:19:45.715Z,15.95
2023-05-10T17:22:13.055Z,15.93
2023-05-10T17:24:39.481Z,15.93
2023-05-10T17:27:05.823Z,15.89
2023-05-10T17:29:32.564Z,15.85
2023-05-10T17:31:59.206Z,15.81
2023-05-10T17:34:25.838Z,15.78
2023-05-10T17:36:52.211Z,15.76
2023-05-10T17:39:18.569Z,15.77
2023-05-10T17:41:45.082Z,15.77
2023-05-10T17:44:13.077Z,15.76
2023-05-10T17:46:39.531Z,15.76
2023-05-10T17:49:06.081Z,15.76
2023-05-10T17:51:32.536Z,15.73
2023-05-10T17:53:58.988Z,15.71
2023-05-10T17:56:25.485Z,15.66
2023-05-10T17:58:52.117Z,15.64
2023-05-10T18:01:19.643Z,15.65
2023-05-10T18:03:46.334Z,15.65
2023-05-10T18:06:12.954Z,15.63
2023-05-10T18:08:39.509Z,15.63
2023-05-10T18:11:05.951Z,15.60
2023-05-10T18:13:32.400Z,15.56
2023-05-10T18:15:59.315Z,15.53
2023-05-10T18:18:25.788Z,15.51
2023-05-10T18:20:56.540Z,15.47
2023-05-10T18:23:24.322Z,15.42
2023-05-10T18:25:52.052Z,15.36
2023-05-10T18:28:18.766Z,15.31
2023-05-10T18:30:47.341Z,15.26
2023-05-10T18:33:13.857Z,15.21
2023-05-10T18:35:40.535Z,15.17
2023-05-10T18:38:11.312Z,15.13
2023-05-10T18:40:38.586Z,15.13
2023-05-10T18:43:05.226Z,15.12
2023-05-10T18:45:31.664Z,15.09
2023-05-10T18:47:58.058Z,15.07
2023-05-10T18:50:24.524Z,15.03
2023-05-10T18:52:50.978Z,14.98
2023-05-10T18:55:17.858Z,14.97
2023-05-10T18:57:45.124Z,14.95
2023-05-10T19:00:12.497Z,14.90
2023-05-10T19:02:40.049Z,14.86
2023-05-10T19:05:07.447Z,14.85
2023-05-10T19:07:34.052Z,14.84
2023-05-10T19:10:00.594Z,14.84
2023-05-10T19:12:27.028Z,14.80
2023-05-10T19:14:53.547Z,14.78
2023-05-10T19:17:20.252Z,14.76
2023-05-10T19:19:48.548Z,14.74
2023-05-10T19:22:15.006Z,14.72
2023-05-10T19:24:41.412Z,14.69
2023-05-10T19:27:09.054Z,14.67
2023-05-10T19:29:35.556Z,14.65
2023-05-10T19:32:02.030Z,14.63
2023-05-10T19:34:28.512Z,14.61
2023-05-10T19:36:54.914Z,14.58
2023-05-10T19:39:21.400Z,14.59
2023-05-10T19:41:49.100Z,14.57
2023-05-10T19:44:15.714Z,14.60
2023-05-10T19:46:42.149Z,14.58
2023-05-10T19:49:10.683Z,14.57
2023-05-10T19:51:37.131Z,14.53
2023-05-10T19:54:05.572Z,14.52
2023-05-10T19:56:31.973Z,14.52
2023-05-10T19:58:58.418Z,14.52
2023-05-10T20:01:24.973Z,14.50
2023-05-10T20:03:51.611Z,14.48
2023-05-10T20:06:18.066Z,14.43
2023-05-10T20:08:44.730Z,14.40
2023-05-10T20:11:12.098Z,14.38
2023-05-10T20:13:38.603Z,14.35
2023-05-10T20:16:06.165Z,14.33
2023-05-10T20:18:32.872Z,14.31
2023-05-10T20:21:00.629Z,14.29
2023-05-10T20:23:27.486Z,14.30
2023-05-10T20:25:54.602Z,14.26
2023-05-10T20:28:23.038Z,14.20
2023-05-10T20:30:53.259Z,14.18
2023-05-10T20:33:20.067Z,14.14
2023-05-10T20:35:46.668Z,14.13
2023-05-10T20:38:13.239Z,14.13
2023-05-10T20:40:39.684Z,14.15
2023-05-10T20:43:06.348Z,14.17
2023-05-10T20:45:32.976Z,14.20
2023-05-10T20:47:59.543Z,14.23
2023-05-10T20:50:26.035Z,14.25
2023-05-10T20:52:52.489Z,14.25
2023-05-10T20:55:19.437Z,14.26
2023-05-10T20:57:46.431Z,14.25
2023-05-10T21:00:15.479Z,14.24
2023-05-10T21:02:43.569Z,14.20
2023-05-10T21:05:10.156Z,14.20
2023-05-10T21:07:36.740Z,14.19
2023-05-10T21:10:03.459Z,14.19
2023-05-10T21:12:29.848Z,14.19
2023-05-10T21:14:56.288Z,14.19
2023-05-10T21:17:22.762Z,14.17
2023-05-10T21:19:50.293Z,14.15
2023-05-10T21:22:16.733Z,14.13
2023-05-10T21:24:43.605Z,14.10
2023-05-10T21:27:10.040Z,14.08
2023-05-10T21:29:36.475Z,14.05
2023-05-10T21:32:02.983Z,14.04
2023-05-10T21:34:29.498Z,14.02
2023-05-10T21:36:55.879Z,14.00
2023-05-10T21:39:22.299Z,14.00
2023-05-10T21:41:48.762Z,14.01
2023-05-10T21:44:15.265Z,13.99
2023-05-10T21:46:41.734Z,13.99
2023-05-10T21:49:09.303Z,13.98
2023-05-10T21:51:35.775Z,13.99
2023-05-10T21:54:02.255Z,14.01
2023-05-10T21:56:28.742Z,14.00
2023-05-10T21:58:55.235Z,13.98
2023-05-10T22:01:21.677Z,13.96
2023-05-10T22:03:48.247Z,13.99
2023-05-10T22:06:14.733Z,13.99
2023-05-10T22:08:41.223Z,13.99
2023-05-10T22:11:07.910Z,13.95
2023-05-10T22:13:34.243Z,13.93
2023-05-10T22:16:00.674Z,13.85
2023-05-10T22:18:27.160Z,13.86
2023-05-10T22:20:53.595Z,13.85
2023-05-10T22:23:20.134Z,13.84
2023-05-10T22:25:46.726Z,13.80
2023-05-10T22:28:13.169Z,13.76
2023-05-10T22:30:42.154Z,13.75
2023-05-10T22:33:08.558Z,13.74
2023-05-10T22:35:35.116Z,13.73
2023-05-10T22:38:01.551Z,13.71
2023-05-10T22:40:28.212Z,13.68
2023-05-10T22:42:54.608Z,13.67
2023-05-10T22:45:21.188Z,13.67
2023-05-10T22:47:47.655Z,13.66
2023-05-10T22:50:14.507Z,13.62
2023-05-10T22:52:41.190Z,13.61
2023-05-10T22:55:07.960Z,13.56
2023-05-10T22:57:34.567Z,13.56
2023-05-10T23:00:01.499Z,13.53
2023-05-10T23:02:27.936Z,13.49
2023-05-10T23:04:54.442Z,13.50
2023-05-10T23:07:20.961Z,13.49
2023-05-10T23:09:47.636Z,13.51
2023-05-10T23:12:14.302Z,13.51
2023-05-10T23:14:41.700Z,13.50
2023-05-10T23:17:08.640Z,13.45
2023-05-10T23:19:35.033Z,13.46
2023-05-10T23:22:01.387Z,13.46
2023-05-10T23:24:28.084Z,13.47
2023-05-10T23:26:54.541Z,13.48
2023-05-10T23:29:20.959Z,13.47
2023-05-10T23:31:51.198Z,13.40
2023-05-10T23:34:17.787Z,13.39
2023-05-10T23:36:44.193Z,13.38
2023-05-10T23:39:11.808Z,13.36
2023-05-10T23:41:38.227Z,13.38
2023-05-10T23:44:04.912Z,13.35
2023-05-10T23:46:31.319Z,13.33
2023-05-10T23:48:57.728Z,13.31
2023-05-10T23:51:24.214Z,13.32
2023-05-10T23:53:50.626Z,13.31
2023-05-10T23:56:17.177Z,13.29
2023-05-10T23:58:44.118Z,13.26
